sensor_id;sensor_type;location;lat;lon;timestamp;pressure;altitude;pressure_sealevel;temperature;humidity
64698;BME280;51124;53.394;-6.294;2023-01-09T00:01:13;98000.31;;;17.10;7.61
64698;BME280;51124;53.394;-6.294;2023-01-09T00:03:44;98007.92;;;18.13;7.40
64698;BME280;51124;53.394;-6.294;2023-01-09T00:06:16;98012.72;;;17.62;7.13
64698;BME280;51124;53.394;-6.294;2023-01-09T00:08:48;98012.02;;;17.37;7.60
64698;BME280;51124;53.394;-6.294;2023-01-09T00:11:19;98018.88;;;18.03;7.42
64698;BME280;51124;53.394;-6.294;2023-01-09T00:13:51;98022.10;;;20.37;7.75
64698;BME280;51124;53.394;-6.294;2023-01-09T00:16:23;98023.80;;;19.11;8.35
64698;BME280;51124;53.394;-6.294;2023-01-09T00:18:55;98030.69;;;18.02;8.22
64698;BME280;51124;53.394;-6.294;2023-01-09T00:21:27;98036.94;;;17.48;8.22
64698;BME280;51124;53.394;-6.294;2023-01-09T00:23:58;98044.24;;;20.58;8.57
64698;BME280;51124;53.394;-6.294;2023-01-09T00:26:30;98053.51;;;20.45;9.03
64698;BME280;51124;53.394;-6.294;2023-01-09T00:29:02;98064.32;;;19.49;9.14
64698;BME280;51124;53.394;-6.294;2023-01-09T00:31:34;98070.23;;;19.88;9.19
64698;BME280;51124;53.394;-6.294;2023-01-09T00:34:07;98059.98;;;19.69;9.46
64698;BME280;51124;53.394;-6.294;2023-01-09T00:36:40;98068.06;;;19.48;9.44
64698;BME280;51124;53.394;-6.294;2023-01-09T00:39:11;98070.73;;;19.35;9.64
64698;BME280;51124;53.394;-6.294;2023-01-09T00:41:45;98076.45;;;19.84;9.42
64698;BME280;51124;53.394;-6.294;2023-01-09T00:44:21;98075.86;;;19.62;9.62
64698;BME280;51124;53.394;-6.294;2023-01-09T00:46:56;98085.80;;;19.25;9.70
64698;BME280;51124;53.394;-6.294;2023-01-09T00:49:10;98089.71;;;19.83;9.43
64698;BME280;51124;53.394;-6.294;2023-01-09T00:51:43;98092.05;;;19.81;9.50
64698;BME280;51124;53.394;-6.294;2023-01-09T00:54:17;98089.59;;;19.19;9.60
64698;BME280;51124;53.394;-6.294;2023-01-09T00:56:49;98093.05;;;19.85;9.51
64698;BME280;51124;53.394;-6.294;2023-01-09T00:59:22;98100.41;;;20.19;9.46
64698;BME280;51124;53.394;-6.294;2023-01-09T01:01:53;98100.70;;;19.06;9.68
64698;BME280;51124;53.394;-6.294;2023-01-09T01:04:25;98106.12;;;19.56;9.55
64698;BME280;51124;53.394;-6.294;2023-01-09T01:06:59;98108.74;;;19.87;9.48
64698;BME280;51124;53.394;-6.294;2023-01-09T01:09:33;98115.23;;;19.70;9.58
64698;BME280;51124;53.394;-6.294;2023-01-09T01:12:07;98109.52;;;19.84;9.44
64698;BME280;51124;53.394;-6.294;2023-01-09T01:14:41;98115.85;;;17.67;9.53
64698;BME280;51124;53.394;-6.294;2023-01-09T01:17:14;98109.52;;;17.33;9.04
64698;BME280;51124;53.394;-6.294;2023-01-09T01:19:48;98116.30;;;18.05;8.63
64698;BME280;51124;53.394;-6.294;2023-01-09T01:22:22;98121.06;;;18.49;8.17
64698;BME280;51124;53.394;-6.294;2023-01-09T01:24:55;98121.33;;;17.40;8.40
64698;BME280;51124;53.394;-6.294;2023-01-09T01:27:29;98111.93;;;17.88;7.78
64698;BME280;51124;53.394;-6.294;2023-01-09T01:30:03;98122.09;;;16.87;7.93
64698;BME280;51124;53.394;-6.294;2023-01-09T01:32:38;98124.48;;;17.34;7.87
64698;BME280;51124;53.394;-6.294;2023-01-09T01:35:12;98130.54;;;18.65;7.55
64698;BME280;51124;53.394;-6.294;2023-01-09T01:37:46;98125.06;;;18.22;7.47
64698;BME280;51124;53.394;-6.294;2023-01-09T01:40:19;98136.57;;;18.25;7.35
64698;BME280;51124;53.394;-6.294;2023-01-09T01:42:54;98135.67;;;17.07;7.66
64698;BME280;51124;53.394;-6.294;2023-01-09T01:45:29;98147.85;;;18.00;7.45
64698;BME280;51124;53.394;-6.294;2023-01-09T01:48:05;98157.93;;;17.11;7.57
64698;BME280;51124;53.394;-6.294;2023-01-09T01:50:34;98156.24;;;17.14;7.37
64698;BME280;51124;53.394;-6.294;2023-01-09T01:53:06;98161.32;;;18.02;7.07
64698;BME280;51124;53.394;-6.294;2023-01-09T01:55:32;98163.70;;;18.15;7.04
64698;BME280;51124;53.394;-6.294;2023-01-09T01:57:59;98168.58;;;17.47;7.18
64698;BME280;51124;53.394;-6.294;2023-01-09T02:00:28;98178.51;;;17.89;7.07
64698;BME280;51124;53.394;-6.294;2023-01-09T02:02:53;98176.53;;;18.50;6.85
64698;BME280;51124;53.394;-6.294;2023-01-09T02:05:27;98186.47;;;17.77;6.96
64698;BME280;51124;53.394;-6.294;2023-01-09T02:08:00;98194.61;;;17.91;7.00
64698;BME280;51124;53.394;-6.294;2023-01-09T02:10:35;98195.40;;;17.59;7.05
64698;BME280;51124;53.394;-6.294;2023-01-09T02:13:00;98197.47;;;18.10;6.99
64698;BME280;51124;53.394;-6.294;2023-01-09T02:15:42;98206.57;;;17.16;7.13
64698;BME280;51124;53.394;-6.294;2023-01-09T02:18:21;98212.46;;;17.08;7.07
64698;BME280;51124;53.394;-6.294;2023-01-09T02:20:40;98220.10;;;17.64;7.06
64698;BME280;51124;53.394;-6.294;2023-01-09T02:28:03;98249.87;;;16.91;7.09
64698;BME280;51124;53.394;-6.294;2023-01-09T02:30:11;98262.58;;;17.28;7.11
64698;BME280;51124;53.394;-6.294;2023-01-09T02:32:18;98266.39;;;18.06;6.98
64698;BME280;51124;53.394;-6.294;2023-01-09T02:34:41;98271.66;;;17.19;7.07
64698;BME280;51124;53.394;-6.294;2023-01-09T02:37:15;98279.11;;;18.48;6.77
64698;BME280;51124;53.394;-6.294;2023-01-09T02:39:46;98290.54;;;18.28;7.01
64698;BME280;51124;53.394;-6.294;2023-01-09T02:42:16;98299.54;;;17.15;7.03
64698;BME280;51124;53.394;-6.294;2023-01-09T02:44:41;98300.33;;;19.03;6.84
64698;BME280;51124;53.394;-6.294;2023-01-09T02:47:47;98321.73;;;17.56;7.16
64698;BME280;51124;53.394;-6.294;2023-01-09T02:49:41;98318.60;;;18.33;7.06
64698;BME280;51124;53.394;-6.294;2023-01-09T02:52:25;98332.95;;;16.95;7.12
64698;BME280;51124;53.394;-6.294;2023-01-09T02:54:50;98341.48;;;17.46;7.13
64698;BME280;51124;53.394;-6.294;2023-01-09T02:57:16;98346.29;;;19.30;6.71
64698;BME280;51124;53.394;-6.294;2023-01-09T02:59:50;98357.30;;;18.40;7.00
64698;BME280;51124;53.394;-6.294;2023-01-09T03:02:15;98367.98;;;18.19;6.95
64698;BME280;51124;53.394;-6.294;2023-01-09T03:04:42;98376.79;;;16.97;7.04
64698;BME280;51124;53.394;-6.294;2023-01-09T03:07:10;98381.73;;;18.15;6.69
64698;BME280;51124;53.394;-6.294;2023-01-09T03:09:37;98394.87;;;18.45;6.68
64698;BME280;51124;53.394;-6.294;2023-01-09T03:12:08;98411.09;;;18.17;6.73
64698;BME280;51124;53.394;-6.294;2023-01-09T03:14:34;98425.84;;;18.28;6.88
64698;BME280;51124;53.394;-6.294;2023-01-09T03:17:03;98433.51;;;20.72;7.20
64698;BME280;51124;53.394;-6.294;2023-01-09T03:19:31;98440.08;;;20.69;7.46
64698;BME280;51124;53.394;-6.294;2023-01-09T03:21:57;98448.25;;;18.91;7.79
64698;BME280;51124;53.394;-6.294;2023-01-09T03:24:31;98451.74;;;17.29;7.59
64698;BME280;51124;53.394;-6.294;2023-01-09T03:27:07;98463.60;;;21.10;7.94
64698;BME280;51124;53.394;-6.294;2023-01-09T03:29:30;98473.14;;;20.54;8.39
64698;BME280;51124;53.394;-6.294;2023-01-09T03:32:05;98487.34;;;19.65;8.66
64698;BME280;51124;53.394;-6.294;2023-01-09T03:34:38;98492.36;;;20.18;8.68
64698;BME280;51124;53.394;-6.294;2023-01-09T03:37:12;98494.12;;;20.19;8.87
64698;BME280;51124;53.394;-6.294;2023-01-09T03:39:46;98496.62;;;20.67;8.79
64698;BME280;51124;53.394;-6.294;2023-01-09T03:42:20;98509.48;;;19.95;9.00
64698;BME280;51124;53.394;-6.294;2023-01-09T03:44:54;98525.11;;;20.05;9.12
64698;BME280;51124;53.394;-6.294;2023-01-09T03:47:27;98535.17;;;20.12;9.16
64698;BME280;51124;53.394;-6.294;2023-01-09T03:50:01;98539.76;;;19.95;9.16
64698;BME280;51124;53.394;-6.294;2023-01-09T03:52:35;98540.16;;;19.80;9.17
64698;BME280;51124;53.394;-6.294;2023-01-09T03:55:09;98549.76;;;20.38;9.16
64698;BME280;51124;53.394;-6.294;2023-01-09T03:57:43;98568.17;;;20.09;9.09
64698;BME280;51124;53.394;-6.294;2023-01-09T04:00:18;98568.99;;;20.82;8.93
64698;BME280;51124;53.394;-6.294;2023-01-09T04:02:52;98573.21;;;20.16;8.98
64698;BME280;51124;53.394;-6.294;2023-01-09T04:05:25;98581.98;;;19.59;9.16
64698;BME280;51124;53.394;-6.294;2023-01-09T04:07:59;98586.67;;;19.23;9.26
64698;BME280;51124;53.394;-6.294;2023-01-09T04:10:33;98592.75;;;20.14;9.08
64698;BME280;51124;53.394;-6.294;2023-01-09T04:13:07;98604.73;;;20.33;9.07
64698;BME280;51124;53.394;-6.294;2023-01-09T04:15:41;98610.86;;;19.74;9.05
64698;BME280;51124;53.394;-6.294;2023-01-09T04:18:15;98611.65;;;17.10;9.14
64698;BME280;51124;53.394;-6.294;2023-01-09T04:20:49;98610.90;;;17.54;8.48
64698;BME280;51124;53.394;-6.294;2023-01-09T04:23:23;98617.43;;;17.85;8.30
64698;BME280;51124;53.394;-6.294;2023-01-09T04:25:56;98621.06;;;18.58;7.99
64698;BME280;51124;53.394;-6.294;2023-01-09T04:28:30;98613.37;;;18.66;7.81
64698;BME280;51124;53.394;-6.294;2023-01-09T04:31:04;98626.12;;;17.39;7.70
64698;BME280;51124;53.394;-6.294;2023-01-09T04:33:37;98624.28;;;17.30;7.64
64698;BME280;51124;53.394;-6.294;2023-01-09T04:36:11;98624.07;;;17.13;7.71
64698;BME280;51124;53.394;-6.294;2023-01-09T04:38:44;98631.76;;;18.49;7.30
64698;BME280;51124;53.394;-6.294;2023-01-09T04:41:18;98637.03;;;18.35;7.30
64698;BME280;51124;53.394;-6.294;2023-01-09T04:43:51;98641.72;;;17.97;7.21
64698;BME280;51124;53.394;-6.294;2023-01-09T04:46:25;98656.54;;;18.76;6.99
64698;BME280;51124;53.394;-6.294;2023-01-09T04:48:59;98667.30;;;17.90;7.24
64698;BME280;51124;53.394;-6.294;2023-01-09T04:51:32;98664.92;;;17.44;7.10
64698;BME280;51124;53.394;-6.294;2023-01-09T04:54:06;98672.41;;;17.40;7.03
64698;BME280;51124;53.394;-6.294;2023-01-09T04:56:40;98682.52;;;18.18;6.94
64698;BME280;51124;53.394;-6.294;2023-01-09T04:59:13;98680.21;;;18.42;6.82
64698;BME280;51124;53.394;-6.294;2023-01-09T05:01:47;98686.25;;;17.99;6.89
64698;BME280;51124;53.394;-6.294;2023-01-09T05:04:21;98689.95;;;19.05;6.79
64698;BME280;51124;53.394;-6.294;2023-01-09T05:06:54;98698.24;;;17.49;6.95
64698;BME280;51124;53.394;-6.294;2023-01-09T05:09:28;98694.73;;;18.27;6.73
64698;BME280;51124;53.394;-6.294;2023-01-09T05:12:01;98698.89;;;18.17;6.82
64698;BME280;51124;53.394;-6.294;2023-01-09T05:14:35;98706.78;;;17.62;6.88
64698;BME280;51124;53.394;-6.294;2023-01-09T05:17:09;98717.30;;;17.41;6.87
64698;BME280;51124;53.394;-6.294;2023-01-09T05:19:43;98717.31;;;17.18;7.10
64698;BME280;51124;53.394;-6.294;2023-01-09T05:22:16;98712.57;;;18.14;6.78
64698;BME280;51124;53.394;-6.294;2023-01-09T05:24:49;98726.87;;;17.54;6.91
64698;BME280;51124;53.394;-6.294;2023-01-09T05:27:23;98736.92;;;16.93;6.93
64698;BME280;51124;53.394;-6.294;2023-01-09T05:29:57;98733.01;;;17.03;6.86
64698;BME280;51124;53.394;-6.294;2023-01-09T05:32:30;98728.98;;;18.34;6.78
64698;BME280;51124;53.394;-6.294;2023-01-09T05:35:05;98729.59;;;17.54;6.69
64698;BME280;51124;53.394;-6.294;2023-01-09T05:37:38;98739.11;;;17.51;6.79
64698;BME280;51124;53.394;-6.294;2023-01-09T05:40:12;98746.86;;;16.78;7.04
64698;BME280;51124;53.394;-6.294;2023-01-09T05:42:46;98751.67;;;17.82;6.84
64698;BME280;51124;53.394;-6.294;2023-01-09T05:45:19;98752.17;;;17.55;6.76
64698;BME280;51124;53.394;-6.294;2023-01-09T05:47:53;98759.41;;;17.13;6.90
64698;BME280;51124;53.394;-6.294;2023-01-09T05:50:27;98767.69;;;17.76;6.97
64698;BME280;51124;53.394;-6.294;2023-01-09T05:53:00;98774.52;;;17.45;7.05
64698;BME280;51124;53.394;-6.294;2023-01-09T05:55:34;98778.59;;;17.32;7.01
64698;BME280;51124;53.394;-6.294;2023-01-09T05:58:07;98789.58;;;17.25;7.28
64698;BME280;51124;53.394;-6.294;2023-01-09T06:00:41;98784.08;;;17.96;6.86
64698;BME280;51124;53.394;-6.294;2023-01-09T06:03:14;98793.33;;;18.36;6.92
64698;BME280;51124;53.394;-6.294;2023-01-09T06:05:48;98798.50;;;17.64;7.15
64698;BME280;51124;53.394;-6.294;2023-01-09T06:08:22;98794.07;;;17.43;6.89
64698;BME280;51124;53.394;-6.294;2023-01-09T06:10:55;98802.48;;;17.83;6.70
64698;BME280;51124;53.394;-6.294;2023-01-09T06:13:29;98799.27;;;17.51;6.82
64698;BME280;51124;53.394;-6.294;2023-01-09T06:16:03;98808.21;;;17.83;6.72
64698;BME280;51124;53.394;-6.294;2023-01-09T06:18:36;98817.33;;;19.53;6.75
64698;BME280;51124;53.394;-6.294;2023-01-09T06:21:10;98823.59;;;20.39;7.29
64698;BME280;51124;53.394;-6.294;2023-01-09T06:23:43;98840.29;;;19.30;7.73
64698;BME280;51124;53.394;-6.294;2023-01-09T06:26:17;98843.18;;;18.87;7.67
64698;BME280;51124;53.394;-6.294;2023-01-09T06:28:51;98848.85;;;21.00;7.57
64698;BME280;51124;53.394;-6.294;2023-01-09T06:31:25;98856.83;;;20.53;8.14
64698;BME280;51124;53.394;-6.294;2023-01-09T06:34:00;98869.94;;;20.34;8.31
64698;BME280;51124;53.394;-6.294;2023-01-09T06:36:33;98871.29;;;20.13;8.66
64698;BME280;51124;53.394;-6.294;2023-01-09T06:39:07;98873.72;;;20.39;8.81
64698;BME280;51124;53.394;-6.294;2023-01-09T06:41:41;98878.68;;;19.83;8.83
64698;BME280;51124;53.394;-6.294;2023-01-09T06:44:15;98882.45;;;19.31;9.16
64698;BME280;51124;53.394;-6.294;2023-01-09T06:46:49;98889.48;;;19.76;9.06
64698;BME280;51124;53.394;-6.294;2023-01-09T06:49:23;98892.61;;;20.10;8.97
64698;BME280;51124;53.394;-6.294;2023-01-09T06:51:56;98902.08;;;19.49;9.05
64698;BME280;51124;53.394;-6.294;2023-01-09T06:54:30;98907.99;;;20.11;9.04
64698;BME280;51124;53.394;-6.294;2023-01-09T06:57:04;98912.04;;;20.06;9.02
64698;BME280;51124;53.394;-6.294;2023-01-09T06:59:36;98922.03;;;19.66;9.15
64698;BME280;51124;53.394;-6.294;2023-01-09T07:02:16;98929.56;;;20.09;9.13
64698;BME280;51124;53.394;-6.294;2023-01-09T07:04:38;98931.99;;;20.04;8.95
64698;BME280;51124;53.394;-6.294;2023-01-09T07:07:10;98942.46;;;19.70;9.23
64698;BME280;51124;53.394;-6.294;2023-01-09T07:09:41;98948.70;;;19.91;9.12
64698;BME280;51124;53.394;-6.294;2023-01-09T07:12:13;98959.93;;;19.62;9.27
64698;BME280;51124;53.394;-6.294;2023-01-09T07:14:45;98964.33;;;19.53;9.32
64698;BME280;51124;53.394;-6.294;2023-01-09T07:17:17;98972.55;;;19.39;9.27
64698;BME280;51124;53.394;-6.294;2023-01-09T07:19:48;98975.41;;;18.61;9.19
64698;BME280;51124;53.394;-6.294;2023-01-09T07:22:20;98976.01;;;17.50;8.92
64698;BME280;51124;53.394;-6.294;2023-01-09T07:24:51;98979.58;;;17.96;8.51
64698;BME280;51124;53.394;-6.294;2023-01-09T07:27:23;98984.10;;;17.86;8.07
64698;BME280;51124;53.394;-6.294;2023-01-09T07:29:54;98989.66;;;17.65;7.99
64698;BME280;51124;53.394;-6.294;2023-01-09T07:32:26;98987.93;;;17.38;7.91
64698;BME280;51124;53.394;-6.294;2023-01-09T07:34:57;98991.93;;;17.73;7.55
64698;BME280;51124;53.394;-6.294;2023-01-09T07:37:29;99002.05;;;17.09;7.61
64698;BME280;51124;53.394;-6.294;2023-01-09T07:40:01;99010.07;;;17.30;7.61
64698;BME280;51124;53.394;-6.294;2023-01-09T07:42:33;99009.77;;;18.33;7.34
64698;BME280;51124;53.394;-6.294;2023-01-09T07:45:06;99016.53;;;18.52;7.35
64698;BME280;51124;53.394;-6.294;2023-01-09T07:47:38;99021.15;;;17.87;7.39
64698;BME280;51124;53.394;-6.294;2023-01-09T07:50:10;99029.07;;;17.53;7.46
64698;BME280;51124;53.394;-6.294;2023-01-09T07:52:43;99034.59;;;14.90;9.05
64698;BME280;51124;53.394;-6.294;2023-01-09T07:55:15;99034.72;;;14.67;10.05
64698;BME280;51124;53.394;-6.294;2023-01-09T07:57:48;99035.13;;;14.46;10.61
64698;BME280;51124;53.394;-6.294;2023-01-09T08:00:20;99040.56;;;14.54;10.31
64698;BME280;51124;53.394;-6.294;2023-01-09T08:02:53;99049.96;;;14.18;10.44
64698;BME280;51124;53.394;-6.294;2023-01-09T08:05:24;99060.64;;;14.62;10.47
64698;BME280;51124;53.394;-6.294;2023-01-09T08:07:56;99068.42;;;16.00;9.62
64698;BME280;51124;53.394;-6.294;2023-01-09T08:10:27;99080.92;;;16.63;9.31
64698;BME280;51124;53.394;-6.294;2023-01-09T08:12:59;99077.02;;;15.68;9.61
64698;BME280;51124;53.394;-6.294;2023-01-09T08:15:30;99091.18;;;13.66;10.48
64698;BME280;51124;53.394;-6.294;2023-01-09T08:18:02;99104.59;;;15.99;9.78
64698;BME280;51124;53.394;-6.294;2023-01-09T08:20:34;99105.09;;;14.48;10.19
64698;BME280;51124;53.394;-6.294;2023-01-09T08:23:06;99110.68;;;14.50;10.32
64698;BME280;51124;53.394;-6.294;2023-01-09T08:25:45;99114.64;;;13.86;10.56
64698;BME280;51124;53.394;-6.294;2023-01-09T08:28:07;99122.44;;;13.85;10.71
64698;BME280;51124;53.394;-6.294;2023-01-09T08:30:39;99131.88;;;11.95;11.36
64698;BME280;51124;53.394;-6.294;2023-01-09T08:33:10;99139.18;;;12.31;11.19
64698;BME280;51124;53.394;-6.294;2023-01-09T08:35:51;99144.33;;;12.99;10.95
64698;BME280;51124;53.394;-6.294;2023-01-09T08:38:12;99152.35;;;12.73;11.06
64698;BME280;51124;53.394;-6.294;2023-01-09T08:40:45;99154.55;;;11.99;11.27
64698;BME280;51124;53.394;-6.294;2023-01-09T08:43:17;99155.26;;;12.49;11.19
64698;BME280;51124;53.394;-6.294;2023-01-09T08:45:48;99161.09;;;12.19;11.29
64698;BME280;51124;53.394;-6.294;2023-01-09T08:48:20;99173.20;;;12.78;11.07
64698;BME280;51124;53.394;-6.294;2023-01-09T08:50:51;99174.41;;;11.76;11.37
64698;BME280;51124;53.394;-6.294;2023-01-09T08:53:24;99188.91;;;13.05;11.18
64698;BME280;51124;53.394;-6.294;2023-01-09T08:55:55;99191.31;;;12.67;11.31
64698;BME280;51124;53.394;-6.294;2023-01-09T08:58:27;99193.54;;;13.94;10.75
64698;BME280;51124;53.394;-6.294;2023-01-09T09:00:58;99194.13;;;14.07;10.36
64698;BME280;51124;53.394;-6.294;2023-01-09T09:03:30;99197.47;;;13.97;10.47
64698;BME280;51124;53.394;-6.294;2023-01-09T09:06:01;99196.90;;;13.75;10.61
64698;BME280;51124;53.394;-6.294;2023-01-09T09:08:41;99201.81;;;14.64;10.46
64698;BME280;51124;53.394;-6.294;2023-01-09T09:11:02;99210.94;;;13.83;10.85
64698;BME280;51124;53.394;-6.294;2023-01-09T09:13:34;99202.52;;;12.34;10.95
64698;BME280;51124;53.394;-6.294;2023-01-09T09:16:06;99211.51;;;11.97;10.79
64698;BME280;51124;53.394;-6.294;2023-01-09T09:18:38;99218.95;;;13.64;10.62
64698;BME280;51124;53.394;-6.294;2023-01-09T09:21:09;99215.64;;;13.40;10.74
64698;BME280;51124;53.394;-6.294;2023-01-09T09:23:45;99227.31;;;12.33;10.96
64698;BME280;51124;53.394;-6.294;2023-01-09T09:26:07;99227.86;;;16.95;10.57
64698;BME280;51124;53.394;-6.294;2023-01-09T09:28:38;99234.17;;;16.78;11.03
64698;BME280;51124;53.394;-6.294;2023-01-09T09:31:12;99226.84;;;16.02;11.18
64698;BME280;51124;53.394;-6.294;2023-01-09T09:33:46;99232.33;;;16.72;10.40
64698;BME280;51124;53.394;-6.294;2023-01-09T09:36:18;99232.20;;;16.89;10.14
64698;BME280;51124;53.394;-6.294;2023-01-09T09:38:50;99239.58;;;18.27;10.84
64698;BME280;51124;53.394;-6.294;2023-01-09T09:41:44;99253.35;;;18.45;10.98
64698;BME280;51124;53.394;-6.294;2023-01-09T09:44:01;99252.51;;;19.01;11.02
64698;BME280;51124;53.394;-6.294;2023-01-09T09:46:22;99262.95;;;17.55;11.49
64698;BME280;51124;53.394;-6.294;2023-01-09T09:48:51;99259.72;;;19.80;9.69
64698;BME280;51124;53.394;-6.294;2023-01-09T09:51:29;99265.86;;;20.83;9.30
64698;BME280;51124;53.394;-6.294;2023-01-09T09:53:49;99272.28;;;19.21;10.67
64698;BME280;51124;53.394;-6.294;2023-01-09T09:56:17;99294.16;;;17.18;11.55
64698;BME280;51124;53.394;-6.294;2023-01-09T09:58:52;99287.14;;;21.11;8.80
64698;BME280;51124;53.394;-6.294;2023-01-09T10:01:19;99299.05;;;19.51;9.88
64698;BME280;51124;53.394;-6.294;2023-01-09T10:03:45;99304.85;;;20.57;9.78
64698;BME280;51124;53.394;-6.294;2023-01-09T10:06:14;99319.30;;;18.45;10.50
64698;BME280;51124;53.394;-6.294;2023-01-09T10:08:42;99331.50;;;19.09;10.36
64698;BME280;51124;53.394;-6.294;2023-01-09T10:11:12;99335.08;;;19.78;10.16
64698;BME280;51124;53.394;-6.294;2023-01-09T10:13:35;99344.74;;;18.71;10.41
64698;BME280;51124;53.394;-6.294;2023-01-09T10:16:17;99349.93;;;19.37;10.20
64698;BME280;51124;53.394;-6.294;2023-01-09T10:18:46;99352.71;;;18.48;10.37
64698;BME280;51124;53.394;-6.294;2023-01-09T10:21:05;99355.67;;;18.46;10.48
64698;BME280;51124;53.394;-6.294;2023-01-09T10:23:51;99362.08;;;18.55;10.43
64698;BME280;51124;53.394;-6.294;2023-01-09T10:26:03;99363.09;;;19.56;10.27
64698;BME280;51124;53.394;-6.294;2023-01-09T10:28:54;99365.37;;;18.54;10.07
64698;BME280;51124;53.394;-6.294;2023-01-09T10:31:04;99355.64;;;18.45;8.97
64698;BME280;51124;53.394;-6.294;2023-01-09T10:33:45;99361.54;;;19.22;8.39
64698;BME280;51124;53.394;-6.294;2023-01-09T10:36:44;99367.37;;;17.77;8.84
64698;BME280;51124;53.394;-6.294;2023-01-09T10:38:34;99375.36;;;19.12;8.50
64698;BME280;51124;53.394;-6.294;2023-01-09T10:41:00;99380.91;;;16.64;9.01
64698;BME280;51124;53.394;-6.294;2023-01-09T10:43:43;99389.66;;;20.13;8.86
64698;BME280;51124;53.394;-6.294;2023-01-09T10:46:01;99391.01;;;17.94;9.28
64698;BME280;51124;53.394;-6.294;2023-01-09T10:48:28;99392.31;;;18.72;8.43
64698;BME280;51124;53.394;-6.294;2023-01-09T10:50:54;99390.80;;;17.09;8.87
64698;BME280;51124;53.394;-6.294;2023-01-09T10:53:28;99392.20;;;16.55;8.99
64698;BME280;51124;53.394;-6.294;2023-01-09T10:56:04;99390.60;;;18.01;8.30
64698;BME280;51124;53.394;-6.294;2023-01-09T10:58:29;99387.69;;;16.98;8.70
64698;BME280;51124;53.394;-6.294;2023-01-09T11:01:00;99380.71;;;18.84;7.99
64698;BME280;51124;53.394;-6.294;2023-01-09T11:03:32;99382.15;;;17.98;7.99
64698;BME280;51124;53.394;-6.294;2023-01-09T11:06:16;99380.09;;;19.61;7.73
64698;BME280;51124;53.394;-6.294;2023-01-09T11:08:33;99384.62;;;18.24;7.86
64698;BME280;51124;53.394;-6.294;2023-01-09T11:10:56;99400.03;;;18.23;7.80
64698;BME280;51124;53.394;-6.294;2023-01-09T11:13:30;99399.93;;;18.97;6.42
64698;BME280;51124;53.394;-6.294;2023-01-09T11:16:05;99399.03;;;18.66;6.51
64698;BME280;51124;53.394;-6.294;2023-01-09T11:18:27;99405.49;;;19.10;6.83
64698;BME280;51124;53.394;-6.294;2023-01-09T11:21:36;99412.33;;;19.74;6.57
64698;BME280;51124;53.394;-6.294;2023-01-09T11:23:30;99418.78;;;20.19;7.06
64698;BME280;51124;53.394;-6.294;2023-01-09T11:26:02;99418.32;;;18.41;7.55
64698;BME280;51124;53.394;-6.294;2023-01-09T11:28:34;99412.60;;;18.59;7.17
64698;BME280;51124;53.394;-6.294;2023-01-09T11:31:05;99427.29;;;18.01;7.27
64698;BME280;51124;53.394;-6.294;2023-01-09T11:33:38;99420.16;;;17.74;7.31
64698;BME280;51124;53.394;-6.294;2023-01-09T11:36:09;99427.94;;;18.49;7.20
64698;BME280;51124;53.394;-6.294;2023-01-09T11:38:46;99438.54;;;21.79;7.73
64698;BME280;51124;53.394;-6.294;2023-01-09T11:41:00;99438.06;;;23.66;7.99
64698;BME280;51124;53.394;-6.294;2023-01-09T11:43:34;99446.02;;;21.21;8.91
64698;BME280;51124;53.394;-6.294;2023-01-09T11:46:09;99443.49;;;21.71;8.74
64698;BME280;51124;53.394;-6.294;2023-01-09T11:48:53;99445.28;;;14.92;9.06
64698;BME280;51124;53.394;-6.294;2023-01-09T11:51:18;99435.78;;;17.16;8.19
64698;BME280;51124;53.394;-6.294;2023-01-09T11:53:49;99428.90;;;17.79;7.98
64698;BME280;51124;53.394;-6.294;2023-01-09T11:56:14;99430.35;;;16.44;8.11
64698;BME280;51124;53.394;-6.294;2023-01-09T11:58:47;99422.98;;;17.59;7.52
64698;BME280;51124;53.394;-6.294;2023-01-09T12:01:38;99421.39;;;20.07;6.98
64698;BME280;51124;53.394;-6.294;2023-01-09T12:04:00;99421.58;;;21.27;6.53
64698;BME280;51124;53.394;-6.294;2023-01-09T12:06:27;99418.37;;;20.35;6.63
64698;BME280;51124;53.394;-6.294;2023-01-09T12:08:55;99429.40;;;20.31;6.74
64698;BME280;51124;53.394;-6.294;2023-01-09T12:11:23;99434.08;;;19.80;6.85
64698;BME280;51124;53.394;-6.294;2023-01-09T12:14:01;99433.38;;;19.38;6.81
64698;BME280;51124;53.394;-6.294;2023-01-09T12:16:25;99434.45;;;20.05;6.74
64698;BME280;51124;53.394;-6.294;2023-01-09T12:18:58;99445.31;;;18.99;7.15
64698;BME280;51124;53.394;-6.294;2023-01-09T12:21:19;99453.31;;;20.15;6.94
64698;BME280;51124;53.394;-6.294;2023-01-09T12:23:56;99459.96;;;20.86;6.68
64698;BME280;51124;53.394;-6.294;2023-01-09T12:26:15;99466.23;;;19.66;6.58
64698;BME280;51124;53.394;-6.294;2023-01-09T12:28:51;99465.34;;;20.35;6.30
64698;BME280;51124;53.394;-6.294;2023-01-09T12:31:17;99469.99;;;20.47;6.36
64698;BME280;51124;53.394;-6.294;2023-01-09T12:33:40;99468.64;;;18.91;6.70
64698;BME280;51124;53.394;-6.294;2023-01-09T12:36:12;99475.14;;;20.90;6.26
64698;BME280;51124;53.394;-6.294;2023-01-09T12:38:39;99498.36;;;19.82;6.47
64698;BME280;51124;53.394;-6.294;2023-01-09T12:41:17;99490.24;;;19.98;6.23
64698;BME280;51124;53.394;-6.294;2023-01-09T12:43:37;99487.09;;;18.91;6.32
64698;BME280;51124;53.394;-6.294;2023-01-09T12:46:09;99490.09;;;19.55;6.12
64698;BME280;51124;53.394;-6.294;2023-01-09T12:48:46;99490.78;;;20.34;6.02
64698;BME280;51124;53.394;-6.294;2023-01-09T12:51:10;99496.00;;;19.70;6.00
64698;BME280;51124;53.394;-6.294;2023-01-09T12:53:38;99514.67;;;23.23;6.09
64698;BME280;51124;53.394;-6.294;2023-01-09T12:56:05;99522.75;;;23.07;6.33
64698;BME280;51124;53.394;-6.294;2023-01-09T12:58:32;99523.13;;;20.85;6.91
64698;BME280;51124;53.394;-6.294;2023-01-09T13:00:57;99534.90;;;19.32;6.91
64698;BME280;51124;53.394;-6.294;2023-01-09T13:03:34;99536.81;;;23.43;6.96
64698;BME280;51124;53.394;-6.294;2023-01-09T13:05:57;99537.33;;;22.11;7.40
64698;BME280;51124;53.394;-6.294;2023-01-09T13:08:35;99548.39;;;22.40;7.69
64698;BME280;51124;53.394;-6.294;2023-01-09T13:11:03;99545.64;;;21.44;8.09
64698;BME280;51124;53.394;-6.294;2023-01-09T13:13:33;99542.22;;;20.17;8.70
64698;BME280;51124;53.394;-6.294;2023-01-09T13:16:01;99545.79;;;20.04;8.89
64698;BME280;51124;53.394;-6.294;2023-01-09T13:18:28;99549.19;;;20.35;8.79
64698;BME280;51124;53.394;-6.294;2023-01-09T13:20:54;99530.56;;;19.25;9.09
64698;BME280;51124;53.394;-6.294;2023-01-09T13:23:32;99536.29;;;20.33;8.82